ジャカルタ の空港の天気 - METARとTAF

スカルノハッタ国際空港 ( WIII / CGK ) - インドネシア バンテン州、Cengkareng ( ジャカルタ近郊)
飛行場実況気象(Metar)
観測時間02/26 10:00 WIB (02/26 03:00 UTC)
風向・風速北 3m/s
視程6000m
天気現象
全天の8割程度の雲 雲底高度 670m
気温28℃
湿度84%
気圧1011hPa
METARWIII 260300Z VRB05KT 6000 BKN022 28/25 Q1011 NOSIG
過去の天気等 Google飛行場航空写真 Wunderground天気予報

過去48時間のMETAR

飛行場予報(TAF)
発表時間: 2/26 06:00 WIB (2/25 23:00 UTC)
予報対象時間: 26日7時 WIB ~ 27日13時 WIB
風向・風速不定 1m/s
視程5,000m
天気現象弱い雨
少しの積乱雲 雲底高度 580m
全天の4割程度の雲 雲底高度 610m
26日10時 WIB から
風向・風速北 5m/s
視程9,000m
全天の4割程度の雲 雲底高度 610m
TAF WIII 252300Z 2600/2706 VRB02KT 5000 -RA FEW019CB SCT020
FM260300 35010KT 9000 SCT020